This is the latest recevied weather packets stored in our database for station/object K4NSC-13. If no packets are shown the sender has not sent any weather packets the latest 10 day(s).
| Time | Temp. | Humidity | Pressure | Rain* | Wind** | Luminosity | Snow |
|---|---|---|---|---|---|---|---|
| 1777588522 | 25° C | 67% | 1009.4 hPa | 0 mm | - | 150 W/m² | - |
| 1777587322 | 25° C | 65% | 1009.3 hPa | 0 mm | - | 279 W/m² | - |
| 1777581324 | 24.44° C | 64% | 1009.5 hPa | 0 mm | - | 639 W/m² | - |
| 1777580724 | 24.44° C | 65% | 1009.5 hPa | 0 mm | - | 747 W/m² | - |
| 1777568726 | 20.56° C | 85% | 1011.1 hPa | 0 mm | - | 347 W/m² | - |
| 1777561519 | 18.33° C | 96% | 1010.8 hPa | 0 mm | - | 296 W/m² | - |
| 1777556749 | 17.78° C | 98% | 1011.2 hPa | 0 mm | - | 272 W/m² | - |
| 1777549531 | 17.22° C | 97% | 1011.8 hPa | 25.4 mm | - | 6 W/m² | - |
| 1777545931 | 18.89° C | 95% | 1009.9 hPa | 7.62 mm | - | 0 W/m² | - |
| 1777544121 | 19.44° C | 95% | 1008.9 hPa | 7.11 mm | - | 0 W/m² | - |
| 1777541732 | 20° C | 90% | 1008.1 hPa | 0 mm | - | 0 W/m² | - |
| 1777541118 | 20° C | 90% | 1007.8 hPa | 0 mm | - | 0 W/m² | - |
| 1777538118 | 20.56° C | 88% | 1008.7 hPa | 0 mm | - | 0 W/m² | - |
| 1777536919 | 20.56° C | 88% | 1008.9 hPa | 0 mm | - | 0 W/m² | - |
| 1777534519 | 21.11° C | 87% | 1008.6 hPa | 0 mm | - | 0 W/m² | - |
| 1777533919 | 21.11° C | 87% | 1008.5 hPa | 0 mm | - | 0 W/m² | - |
| 1777531521 | 21.67° C | 84% | 1008.5 hPa | 0 mm | - | 0 W/m² | - |
| 1777528522 | 22.78° C | 80% | 1009.3 hPa | 0 mm | - | 0 W/m² | - |
| 1777523722 | 23.33° C | 78% | 1009.7 hPa | 0 mm | - | 0 W/m² | - |
| 1777522522 | 23.33° C | 79% | 1009.7 hPa | 0 mm | - | 0 W/m² | - |
| 1777521943 | 23.33° C | 79% | 1009.5 hPa | 0 mm | - | 0 W/m² | - |
| 1777516524 | 23.89° C | 75% | 1009.9 hPa | 0 mm | - | 0 W/m² | - |
| 1777512326 | 24.44° C | 73% | 1009.6 hPa | 0 mm | - | 0 W/m² | - |
| 1777511126 | 24.44° C | 74% | 1009.5 hPa | 0 mm | - | 0 W/m² | - |
| 1777509367 | 25° C | 72% | 1009 hPa | 0 mm | - | 0 W/m² | - |
* Rain latest hour (hover to see other rain measurements)
** Current wind speed in m/s (hover to see current wind gust speed)